Time;durP1;ratioP1;P1;durP2;ratioP2;P2;SDS_P1;SDS_P2;PMS_P1;PMS_P2;Temp;Humidity;BMP_temperature;BMP_pressure;BME280_temperature;BME280_humidity;BME280_pressure;Samples;Min_cycle;Max_cycle;Signal;HPM_P1;HPM_P2
2024/01/10 00:01:51;;;;;;;15.15;6.05;;;;;;;-4.88;100.00;99712.81;5021853;28;20021;-56
2024/01/10 00:04:17;;;;;;;11.82;5.22;;;;;;;-4.70;100.00;99706.50;5001521;28;20030;-56
2024/01/10 00:06:43;;;;;;;12.38;5.80;;;;;;;-4.69;100.00;99705.59;5015884;28;20071;-55
2024/01/10 00:09:08;;;;;;;14.27;6.38;;;;;;;-4.70;100.00;99708.31;5014448;28;20030;-55
2024/01/10 00:11:34;;;;;;;15.95;7.05;;;;;;;-4.61;100.00;99702.53;5012987;28;20032;-56
2024/01/10 00:13:59;;;;;;;17.67;6.25;;;;;;;-4.46;100.00;99708.72;5018989;28;20484;-55
2024/01/10 00:16:28;;;;;;;18.10;5.93;;;;;;;-4.48;100.00;99705.31;5015575;28;20026;-55
2024/01/10 00:18:53;;;;;;;9.02;3.97;;;;;;;-4.46;100.00;99708.72;5013686;28;20026;-56
2024/01/10 00:21:18;;;;;;;14.88;5.88;;;;;;;-4.51;100.00;99697.56;4996055;28;20028;-55
2024/01/10 00:23:44;;;;;;;12.68;5.95;;;;;;;-4.55;100.00;99701.34;5016975;28;20056;-56
2024/01/10 00:26:09;;;;;;;15.35;5.80;;;;;;;-4.63;100.00;99697.31;5018445;28;20460;-56
2024/01/10 00:28:34;;;;;;;17.42;5.82;;;;;;;-4.60;100.00;99695.47;5017516;28;20099;-56
2024/01/10 00:31:00;;;;;;;15.02;6.10;;;;;;;-4.58;100.00;99693.59;5054202;22;20064;-77
2024/01/10 00:33:25;;;;;;;17.02;5.53;;;;;;;-4.72;100.00;99675.84;5035471;28;20044;-77
2024/01/10 00:35:50;;;;;;;16.75;5.93;;;;;;;-4.66;100.00;99684.31;5038979;28;20489;-77
2024/01/10 00:38:15;;;;;;;15.75;5.60;;;;;;;-4.67;100.00;99693.13;5025889;28;20061;-77
2024/01/10 00:40:41;;;;;;;15.27;6.03;;;;;;;-4.70;100.00;99695.09;5022271;28;20033;-77
2024/01/10 00:43:06;;;;;;;26.67;6.40;;;;;;;-4.79;100.00;99678.00;5019175;28;20629;-77
2024/01/10 00:45:31;;;;;;;16.15;6.43;;;;;;;-4.66;100.00;99696.66;5022110;28;20017;-77
2024/01/10 00:47:57;;;;;;;18.38;6.55;;;;;;;-4.69;100.00;99686.25;5025131;28;20033;-77
2024/01/10 00:50:22;;;;;;;22.15;6.40;;;;;;;-4.77;100.00;99677.91;5030604;28;20017;-76
2024/01/10 00:52:48;;;;;;;20.75;6.60;;;;;;;-4.75;100.00;99683.94;5033437;28;20110;-76
2024/01/10 00:55:13;;;;;;;15.18;5.13;;;;;;;-4.72;100.00;99676.69;5037928;28;20036;-76
2024/01/10 00:57:39;;;;;;;17.08;6.25;;;;;;;-4.73;100.00;99682.94;5037253;28;20017;-76
2024/01/10 01:00:09;;;;;;;17.33;6.38;;;;;;;-4.67;100.00;99695.78;5019393;28;20497;-76
2024/01/10 01:02:35;;;;;;;18.23;6.55;;;;;;;-4.62;100.00;99699.00;5033164;28;20486;-76
2024/01/10 01:05:01;;;;;;;15.90;6.53;;;;;;;-4.56;100.00;99691.69;5020608;28;20022;-76
2024/01/10 01:07:26;;;;;;;21.40;7.18;;;;;;;-4.68;100.00;99688.81;5023185;28;20022;-76
2024/01/10 01:09:52;;;;;;;17.63;6.40;;;;;;;-4.63;100.00;99696.47;5018506;28;20025;-76
2024/01/10 01:12:17;;;;;;;16.85;5.50;;;;;;;-4.60;100.00;99700.75;5021988;28;20045;-76
2024/01/10 01:14:42;;;;;;;13.98;6.35;;;;;;;-4.68;100.00;99694.09;5033163;28;20380;-76
2024/01/10 01:17:08;;;;;;;17.48;5.70;;;;;;;-4.75;100.00;99687.44;5017915;28;20048;-76
2024/01/10 01:19:33;;;;;;;17.02;5.88;;;;;;;-4.75;100.00;99692.72;5024745;28;20025;-76
2024/01/10 01:21:59;;;;;;;15.80;5.82;;;;;;;-4.82;100.00;99696.66;5015942;28;20105;-76
2024/01/10 01:24:24;;;;;;;18.27;6.00;;;;;;;-4.87;100.00;99694.25;5029772;28;20026;-76
2024/01/10 01:26:49;;;;;;;15.77;6.35;;;;;;;-4.73;100.00;99719.88;5019695;28;20029;-76
2024/01/10 01:29:16;;;;;;;20.30;6.35;;;;;;;-4.75;100.00;99708.56;5026502;28;20033;-76
2024/01/10 01:31:41;;;;;;;16.58;5.85;;;;;;;-4.86;100.00;99695.09;5016410;28;20021;-76
2024/01/10 01:34:06;;;;;;;19.85;6.38;;;;;;;-4.86;100.00;99701.22;5022220;28;20368;-76
2024/01/10 01:36:32;;;;;;;12.68;5.82;;;;;;;-4.80;100.00;99713.22;5034138;28;20379;-76
2024/01/10 01:38:57;;;;;;;14.45;6.28;;;;;;;-4.95;100.00;99685.03;5023214;28;20788;-76
2024/01/10 01:41:22;;;;;;;16.70;5.70;;;;;;;-4.86;100.00;99706.50;5016680;28;20017;-76
2024/01/10 01:43:48;;;;;;;17.35;5.40;;;;;;;-4.89;100.00;99700.56;5021670;28;20085;-76
2024/01/10 01:46:14;;;;;;;20.27;7.55;;;;;;;-5.03;100.00;99672.28;5023924;28;20075;-76
2024/01/10 01:48:39;;;;;;;13.45;5.10;;;;;;;-4.87;100.00;99703.97;5018846;28;20395;-76
2024/01/10 01:51:06;;;;;;;14.57;5.57;;;;;;;-4.79;100.00;99703.53;5016698;28;20028;-76
2024/01/10 01:53:34;;;;;;;19.20;6.68;;;;;;;-4.82;100.00;99696.66;5014819;28;20049;-76
2024/01/10 01:56:03;;;;;;;17.58;6.35;;;;;;;-4.87;100.00;99685.50;5034975;28;20091;-76
2024/01/10 01:58:29;;;;;;;19.58;6.30;;;;;;;-4.70;100.00;99693.31;5030493;28;20025;-76
2024/01/10 02:00:55;;;;;;;13.45;5.63;;;;;;;-4.59;100.00;99694.50;5030508;28;20029;-76
2024/01/10 02:03:21;;;;;;;16.85;5.63;;;;;;;-4.56;100.00;99689.06;5033720;28;20032;-76
2024/01/10 02:05:46;;;;;;;16.75;6.13;;;;;;;-4.43;100.00;99696.22;5029715;28;20014;-76
2024/01/10 02:08:11;;;;;;;17.00;5.95;;;;;;;-4.52;100.00;99678.25;5032722;28;20024;-76
2024/01/10 02:10:37;;;;;;;17.10;5.57;;;;;;;-4.50;100.00;99672.88;5014987;28;20036;-76
2024/01/10 02:13:02;;;;;;;19.13;7.15;;;;;;;-4.34;100.00;99684.28;5032593;28;20091;-76
2024/01/10 02:15:28;;;;;;;22.98;6.38;;;;;;;-4.34;100.00;99683.44;5033980;28;20025;-76
2024/01/10 02:17:53;;;;;;;13.80;5.65;;;;;;;-4.36;100.00;99680.84;5018528;28;20116;-76
2024/01/10 02:20:20;;;;;;;13.18;5.70;;;;;;;-4.47;100.00;99672.69;5017798;28;20025;-76
2024/01/10 02:22:46;;;;;;;12.98;5.65;;;;;;;-4.35;100.00;99684.34;5019638;28;20036;-76
2024/01/10 02:25:12;;;;;;;16.58;6.03;;;;;;;-4.28;100.00;99686.56;5013215;28;20021;-76
2024/01/10 02:27:39;;;;;;;15.05;6.20;;;;;;;-4.23;100.00;99683.66;5017948;28;20021;-76
2024/01/10 02:30:06;;;;;;;17.02;6.00;;;;;;;-4.19;100.00;99680.75;5018266;28;20048;-76
2024/01/10 02:32:31;;;;;;;17.20;5.78;;;;;;;-4.28;100.00;99668.06;5036627;28;20051;-76
2024/01/10 02:34:57;;;;;;;20.73;6.20;;;;;;;-4.29;100.00;99654.97;5036166;28;20029;-76
2024/01/10 02:37:22;;;;;;;15.77;5.43;;;;;;;-4.06;100.00;99682.66;5030088;28;20006;-77
2024/01/10 02:39:48;;;;;;;13.40;5.88;;;;;;;-4.13;100.00;99673.41;5039983;28;20053;-77
2024/01/10 02:42:13;;;;;;;16.95;6.35;;;;;;;-4.18;100.00;99658.66;5028907;28;20536;-76
2024/01/10 02:44:38;;;;;;;14.90;5.80;;;;;;;-4.03;100.00;99674.59;5020900;28;20383;-76
2024/01/10 02:47:05;;;;;;;17.75;6.70;;;;;;;-4.09;100.00;99664.34;5023027;28;20526;-76
2024/01/10 02:49:30;;;;;;;17.05;5.90;;;;;;;-4.23;100.00;99639.59;5018345;28;20021;-76
2024/01/10 02:51:55;;;;;;;20.38;6.07;;;;;;;-4.09;100.00;99669.63;5028514;28;20483;-76
2024/01/10 02:54:20;;;;;;;17.65;6.90;;;;;;;-4.16;100.00;99660.38;5037280;28;20033;-76
2024/01/10 02:56:46;;;;;;;15.90;5.63;;;;;;;-4.16;100.00;99663.03;5023613;28;20029;-76
2024/01/10 02:59:11;;;;;;;19.27;5.88;;;;;;;-4.32;100.00;99650.69;5025229;28;20395;-76
2024/01/10 03:01:36;;;;;;;13.80;5.95;;;;;;;-4.30;100.00;99669.09;5037070;28;20024;-76
2024/01/10 03:04:02;;;;;;;19.00;6.28;;;;;;;-4.45;100.00;99662.91;5025676;28;20475;-77
2024/01/10 03:06:27;;;;;;;18.80;6.93;;;;;;;-4.47;100.00;99651.56;5014775;28;20021;-76
2024/01/10 03:08:52;;;;;;;15.10;6.05;;;;;;;-4.48;100.00;99632.25;5021300;28;20029;-76
2024/01/10 03:11:18;;;;;;;21.45;6.72;;;;;;;-4.24;100.00;99660.81;5035271;28;20036;-76
2024/01/10 03:13:47;;;;;;;16.15;6.30;;;;;;;-4.34;100.00;99651.72;5026355;28;20494;-76
2024/01/10 03:16:12;;;;;;;;;;;;;;;-4.45;100.00;99653.19;5035409;28;20028;-76
2024/01/10 03:18:37;;;;;;;17.95;5.97;;;;;;;-4.60;100.00;99648.78;5027223;28;20000;-76
2024/01/10 03:21:03;;;;;;;16.52;5.47;;;;;;;-4.73;100.00;99648.63;5039621;28;20032;-77
2024/01/10 03:23:28;;;;;;;14.75;5.25;;;;;;;-4.86;100.00;99653.72;5025113;28;20036;-76
2024/01/10 03:25:54;;;;;;;15.65;5.85;;;;;;;-4.85;100.00;99651.94;5036161;28;20486;-76
2024/01/10 03:28:19;;;;;;;17.33;6.78;;;;;;;-4.90;100.00;99643.41;5032008;28;20030;-76
2024/01/10 03:30:45;;;;;;;16.40;6.45;;;;;;;-5.05;100.00;99634.56;5013490;28;20021;-76
2024/01/10 03:33:10;;;;;;;19.48;6.85;;;;;;;-4.97;100.00;99631.50;5033596;28;20501;-76
2024/01/10 03:35:35;;;;;;;23.17;7.53;;;;;;;-5.05;100.00;99628.44;5031558;28;20453;-76
2024/01/10 03:38:01;;;;;;;18.02;6.20;;;;;;;-5.00;100.00;99636.94;5022967;28;20025;-76
2024/01/10 03:40:26;;;;;;;15.60;5.70;;;;;;;-4.99;100.00;99631.59;5022984;28;20048;-76
2024/01/10 03:42:51;;;;;;;17.23;6.68;;;;;;;-5.03;100.00;99624.78;5031114;28;20033;-76
2024/01/10 03:45:20;;;;;;;16.80;6.93;;;;;;;-4.98;100.00;99642.97;5036328;28;20032;-76
2024/01/10 03:47:49;;;;;;;14.00;5.00;;;;;;;-5.05;100.00;99637.22;5020356;28;20031;-76
2024/01/10 03:50:15;;;;;;;20.80;7.05;;;;;;;-5.12;100.00;99638.47;5022034;28;20064;-76
2024/01/10 03:52:40;;;;;;;17.33;6.32;;;;;;;-5.16;100.00;99635.16;5023093;28;20025;-76
2024/01/10 03:55:06;;;;;;;17.00;6.72;;;;;;;-5.10;100.00;99645.38;5020090;28;20029;-76
2024/01/10 03:57:31;;;;;;;17.15;6.07;;;;;;;-4.98;100.00;99641.19;5017356;28;20037;-76
2024/01/10 03:59:57;;;;;;;20.25;7.05;;;;;;;-5.10;100.00;99624.25;5025999;28;20032;-76
2024/01/10 04:02:22;;;;;;;15.70;6.40;;;;;;;-4.98;100.00;99648.25;5035635;28;20033;-76
2024/01/10 04:04:47;;;;;;;21.40;7.10;;;;;;;-4.95;100.00;99645.44;5030527;28;20075;-76
2024/01/10 04:07:13;;;;;;;16.38;6.70;;;;;;;-4.95;100.00;99634.91;5029731;28;20399;-76
2024/01/10 04:09:38;;;;;;;19.58;7.03;;;;;;;-4.93;100.00;99647.06;5029935;28;20060;-76
2024/01/10 04:12:03;;;;;;;16.52;6.53;;;;;;;-4.86;100.00;99653.72;5031730;28;20099;-76
2024/01/10 04:14:29;;;;;;;18.17;6.47;;;;;;;-4.96;100.00;99620.84;5021158;28;20100;-76
2024/01/10 04:16:54;;;;;;;16.17;5.95;;;;;;;-4.91;100.00;99624.09;5038308;28;20037;-76
2024/01/10 04:19:20;;;;;;;19.27;6.38;;;;;;;-4.81;100.00;99624.44;5035869;28;20037;-76
2024/01/10 04:21:45;;;;;;;16.83;6.85;;;;;;;-4.76;100.00;99642.66;5036260;28;20048;-76
2024/01/10 04:24:11;;;;;;;14.23;6.28;;;;;;;-4.75;100.00;99625.88;5034138;28;20025;-77
2024/01/10 04:27:01;;;;;;;17.55;6.68;;;;;;;-4.58;100.00;99648.69;5040409;28;20045;-82
2024/01/10 04:29:26;;;;;;;15.85;6.45;;;;;;;-4.63;100.00;99644.53;5036129;28;20049;-80
2024/01/10 04:31:55;;;;;;;17.52;6.50;;;;;;;-4.62;100.00;99648.84;5033242;28;20029;-81
2024/01/10 04:34:23;;;;;;;;;;;;;;;-4.63;100.00;99646.31;4999622;28;20041;-82
2024/01/10 04:37:06;;;;;;;17.58;6.97;;;;;;;-4.66;100.00;99633.28;5002457;28;19925;-81
2024/01/10 04:39:42;;;;;;;26.52;7.45;;;;;;;-4.76;100.00;99596.00;5021908;28;20064;-80
2024/01/10 04:42:08;;;;;;;19.63;7.25;;;;;;;-4.54;100.00;99610.59;5022827;28;20052;-81
2024/01/10 04:44:36;;;;;;;14.52;6.70;;;;;;;-4.43;100.00;99601.13;5019652;28;20033;-81
2024/01/10 04:47:01;;;;;;;23.43;6.77;;;;;;;-4.58;100.00;99580.91;5015582;28;20025;-81
2024/01/10 04:49:27;;;;;;;21.40;7.57;;;;;;;-4.19;100.00;99632.34;5021369;28;20410;-81
2024/01/10 04:51:52;;;;;;;15.93;6.50;;;;;;;-4.07;100.00;99657.19;5008384;28;20435;-81
2024/01/10 04:54:18;;;;;;;15.25;6.78;;;;;;;-4.20;100.00;99636.75;5003456;28;20116;-81
2024/01/10 04:56:44;;;;;;;21.48;7.43;;;;;;;-4.38;100.00;99623.78;5029433;28;20079;-80
2024/01/10 04:59:11;;;;;;;16.75;6.40;;;;;;;-4.21;100.00;99650.91;5010159;28;20102;-78
2024/01/10 05:01:37;;;;;;;18.70;6.93;;;;;;;-4.22;100.00;99632.50;5007133;28;20138;-79
2024/01/10 05:04:02;;;;;;;21.55;6.95;;;;;;;-4.19;100.00;99658.78;5021639;28;20150;-78
2024/01/10 05:06:27;;;;;;;19.17;7.07;;;;;;;-4.09;100.00;99653.78;5020123;28;20041;-77
2024/01/10 05:08:57;;;;;;;20.38;6.88;;;;;;;-4.25;100.00;99643.25;5026591;28;20033;-78
2024/01/10 05:11:23;;;;;;;22.70;8.32;;;;;;;-4.30;100.00;99640.88;5014686;28;20034;-80
2024/01/10 05:13:48;;;;;;;23.30;8.30;;;;;;;-4.14;100.00;99656.69;5019140;28;20036;-80
2024/01/10 05:16:14;;;;;;;19.15;7.10;;;;;;;-4.09;100.00;99645.84;5024082;28;20052;-79
2024/01/10 05:18:39;;;;;;;21.15;7.45;;;;;;;-4.08;100.00;99651.06;5023959;28;20056;-78
2024/01/10 05:21:29;;;;;;;25.55;8.35;;;;;;;-3.93;100.00;99651.09;5039273;28;20030;-83
2024/01/10 05:27:44;;;;;;;17.98;6.68;;;;;;;-4.03;100.00;99645.50;5034304;22;20057;-60
2024/01/10 05:30:12;;;;;;;19.52;6.95;;;;;;;-4.02;100.00;99650.69;5020334;28;20034;-59
2024/01/10 05:32:38;;;;;;;25.58;7.97;;;;;;;-3.90;100.00;99654.41;5017824;28;20268;-59
2024/01/10 05:35:04;;;;;;;22.65;7.90;;;;;;;-3.95;100.00;99655.63;5017677;28;20022;-59
2024/01/10 05:37:30;;;;;;;19.77;7.45;;;;;;;-3.98;100.00;99657.50;5018926;28;20474;-59
2024/01/10 05:39:55;;;;;;;25.95;7.90;;;;;;;-3.93;100.00;99657.25;5020895;28;20021;-59
2024/01/10 05:42:21;;;;;;;19.52;7.72;;;;;;;-3.95;100.00;99658.28;5019591;28;20087;-63
2024/01/10 05:44:49;;;;;;;19.52;7.53;;;;;;;-3.92;100.00;99661.56;5013322;28;20030;-60
2024/01/10 05:47:14;;;;;;;26.70;7.47;;;;;;;-3.97;100.00;99661.00;5019415;28;20026;-59
2024/01/10 05:49:40;;;;;;;18.02;7.95;;;;;;;-4.02;100.00;99653.34;5021584;28;20033;-59
2024/01/10 05:52:06;;;;;;;21.33;8.75;;;;;;;-3.96;100.00;99654.75;5017108;28;20551;-59
2024/01/10 05:54:31;;;;;;;20.77;7.45;;;;;;;-3.97;100.00;99659.19;5021655;28;20026;-59
2024/01/10 05:57:00;;;;;;;20.75;7.70;;;;;;;-3.95;100.00;99645.91;5013677;28;20029;-59
2024/01/10 05:59:27;;;;;;;21.52;6.90;;;;;;;-3.92;100.00;99647.53;5006988;28;20139;-59
2024/01/10 06:01:52;;;;;;;16.80;6.82;;;;;;;-3.85;100.00;99664.69;5013449;28;20109;-59
2024/01/10 06:04:18;;;;;;;19.17;7.20;;;;;;;-3.84;100.00;99664.63;5017089;28;20091;-60
2024/01/10 06:06:45;;;;;;;19.45;7.28;;;;;;;-3.92;100.00;99653.66;5002115;28;20037;-59
2024/01/10 06:09:11;;;;;;;21.02;7.18;;;;;;;-3.92;100.00;99661.56;5009681;28;20053;-59
2024/01/10 06:11:45;;;;;;;20.13;8.27;;;;;;;-3.90;100.00;99648.25;5021068;28;20097;-59
2024/01/10 06:14:10;;;;;;;23.58;8.80;;;;;;;-3.96;100.00;99646.81;5019835;28;20498;-59
2024/01/10 06:16:35;;;;;;;20.27;7.60;;;;;;;-3.87;100.00;99656.88;5012875;28;20103;-59
2024/01/10 06:19:01;;;;;;;22.52;7.35;;;;;;;-3.92;100.00;99656.28;5019448;28;20030;-59
2024/01/10 06:21:26;;;;;;;23.02;8.38;;;;;;;-3.91;100.00;99655.34;4997290;28;20419;-59
2024/01/10 06:23:51;;;;;;;21.75;7.70;;;;;;;-3.89;100.00;99652.63;5006152;28;20026;-60
2024/01/10 06:26:17;;;;;;;22.42;7.60;;;;;;;-3.89;100.00;99664.03;5009653;28;20034;-60
2024/01/10 06:28:42;;;;;;;21.70;7.13;;;;;;;-3.87;100.00;99654.22;5018794;28;20029;-59
2024/01/10 06:31:08;;;;;;;20.85;6.80;;;;;;;-3.86;100.00;99657.72;4998477;28;20029;-60
2024/01/10 06:33:33;;;;;;;21.63;7.82;;;;;;;-3.83;100.00;99670.75;5031670;22;20052;-54
2024/01/10 06:35:59;;;;;;;22.23;7.60;;;;;;;-3.82;100.00;99662.75;5012995;28;20429;-55
2024/01/10 06:38:24;;;;;;;20.80;7.32;;;;;;;-3.76;100.00;99665.00;5014759;28;20046;-52
2024/01/10 06:40:50;;;;;;;26.23;9.30;;;;;;;-3.76;100.00;99669.44;5020146;28;20051;-55
2024/01/10 06:43:16;;;;;;;21.58;8.23;;;;;;;-3.86;100.00;99674.41;5007973;28;20496;-54
2024/01/10 06:45:42;;;;;;;22.58;8.25;;;;;;;-3.84;100.00;99677.84;5018886;28;20516;-55
2024/01/10 06:48:08;;;;;;;21.73;7.82;;;;;;;-3.90;100.00;99670.28;5012970;28;20174;-54
2024/01/10 06:50:33;;;;;;;23.73;7.40;;;;;;;-3.91;100.00;99671.19;5009536;28;20033;-54
2024/01/10 06:52:59;;;;;;;22.05;7.38;;;;;;;-3.99;100.00;99671.66;5004473;28;20034;-54
2024/01/10 06:55:24;;;;;;;20.27;7.35;;;;;;;-3.99;100.00;99678.72;5015184;28;20046;-54
2024/01/10 06:57:52;;;;;;;22.35;8.32;;;;;;;-3.97;100.00;99682.16;4991628;28;20121;-55
2024/01/10 07:00:22;;;;;;;16.40;5.93;;;;;;;-3.96;100.00;99686.47;5020902;28;20157;-54
2024/01/10 07:02:48;;;;;;;20.73;7.97;;;;;;;-3.88;100.00;99688.66;5006527;28;20034;-52
2024/01/10 07:05:14;;;;;;;19.63;7.95;;;;;;;-3.85;100.00;99686.72;5003898;28;20548;-54
2024/01/10 07:07:39;;;;;;;18.70;7.40;;;;;;;-3.82;100.00;99689.19;4997491;28;20080;-54
2024/01/10 07:10:05;;;;;;;20.48;8.23;;;;;;;-3.84;100.00;99696.34;5000105;28;20085;-54
2024/01/10 07:12:31;;;;;;;24.25;8.02;;;;;;;-3.87;100.00;99699.16;5007579;28;20052;-52
2024/01/10 07:14:57;;;;;;;19.30;7.82;;;;;;;-3.82;100.00;99698.91;5015847;28;20474;-55
2024/01/10 07:17:23;;;;;;;16.45;7.88;;;;;;;-3.90;100.00;99680.84;5008841;28;20029;-54
2024/01/10 07:19:48;;;;;;;19.67;7.70;;;;;;;-3.83;100.00;99692.75;4999124;28;20087;-54
2024/01/10 07:22:14;;;;;;;25.80;8.43;;;;;;;-3.81;100.00;99692.66;5007396;28;20036;-55
2024/01/10 07:24:39;;;;;;;29.23;14.30;;;;;;;-3.78;100.00;99695.97;5001291;28;20030;-52
2024/01/10 07:27:06;;;;;;;21.55;8.70;;;;;;;-3.66;100.00;99691.75;4990339;28;20014;-54
2024/01/10 07:29:31;;;;;;;26.60;10.35;;;;;;;-3.66;100.00;99699.69;5013001;28;20476;-53
2024/01/10 07:31:58;;;;;;;31.63;10.50;;;;;;;-3.62;100.00;99695.06;5004484;28;20022;-55
2024/01/10 07:34:23;;;;;;;20.27;8.23;;;;;;;-3.59;100.00;99692.22;5014372;28;20030;-54
2024/01/10 07:36:48;;;;;;;27.52;9.90;;;;;;;-3.50;100.00;99693.50;5011859;28;20037;-54
2024/01/10 07:39:18;;;;;;;24.65;9.45;;;;;;;-3.50;100.00;99685.56;5011500;28;20025;-52
2024/01/10 07:41:44;;;;;;;26.48;11.25;;;;;;;-3.38;100.00;99690.09;5010603;28;20022;-53
2024/01/10 07:44:09;;;;;;;23.00;9.55;;;;;;;-3.32;100.00;99698.50;5020191;28;20028;-54
2024/01/10 07:46:37;;;;;;;26.67;10.20;;;;;;;-3.23;100.00;99698.88;5018867;28;20041;-54
2024/01/10 07:49:03;;;;;;;24.50;10.48;;;;;;;-3.15;100.00;99686.03;5015936;28;20033;-54
2024/01/10 07:51:29;;;;;;;25.77;9.85;;;;;;;-3.04;100.00;99691.50;5013937;28;20188;-54
2024/01/10 07:53:55;;;;;;;25.15;9.15;;;;;;;-2.98;100.00;99701.72;5009019;28;20033;-54
2024/01/10 07:56:20;;;;;;;24.13;9.15;;;;;;;-3.01;100.00;99701.94;5013713;28;20065;-54
2024/01/10 07:58:46;;;;;;;21.73;8.90;;;;;;;-2.80;100.00;99697.09;5019059;28;20096;-54
2024/01/10 08:01:12;;;;;;;15.95;7.32;;;;;;;-2.81;100.00;99700.66;5010504;28;20033;-54
2024/01/10 08:03:37;;;;;;;23.33;8.52;;;;;;;-2.81;100.00;99705.13;5013539;28;20045;-54
2024/01/10 08:06:04;;;;;;;22.33;8.77;;;;;;;-2.73;100.00;99710.78;5008826;28;20470;-54
2024/01/10 08:08:29;;;;;;;23.33;8.52;;;;;;;-2.73;100.00;99716.91;5016565;28;20021;-54
2024/01/10 08:10:56;;;;;;;18.92;8.30;;;;;;;-2.74;100.00;99711.72;5002393;28;20474;-54
2024/01/10 08:13:21;;;;;;;23.75;9.00;;;;;;;-2.66;100.00;99720.88;5015313;28;20034;-55
2024/01/10 08:15:47;;;;;;;21.45;8.73;;;;;;;-2.55;100.00;99719.34;5015028;28;20033;-54
2024/01/10 08:18:14;;;;;;;20.60;8.07;;;;;;;-2.66;100.00;99726.19;5017001;28;20069;-52
2024/01/10 08:20:39;;;;;;;22.33;8.45;;;;;;;-2.64;100.00;99720.81;5015565;28;20026;-53
2024/01/10 08:23:05;;;;;;;22.35;8.60;;;;;;;-2.67;100.00;99724.50;5016703;28;20033;-53
2024/01/10 08:25:30;;;;;;;21.77;8.25;;;;;;;-2.65;100.00;99729.69;5011613;28;20023;-53
2024/01/10 08:27:57;;;;;;;21.33;8.23;;;;;;;-2.77;100.00;99735.78;5014047;28;20149;-53
2024/01/10 08:30:23;;;;;;;30.75;9.35;;;;;;;-2.90;100.00;99739.16;4999847;28;20040;-53
2024/01/10 08:32:49;;;;;;;19.23;7.50;;;;;;;-2.82;100.00;99743.16;5016061;28;20041;-53
2024/01/10 08:35:15;;;;;;;21.98;8.35;;;;;;;-2.93;100.00;99728.78;5019480;28;20053;-53
2024/01/10 08:37:42;;;;;;;24.08;8.88;;;;;;;-2.74;100.00;99738.22;5006055;28;20113;-53
2024/01/10 08:40:11;;;;;;;23.77;8.48;;;;;;;-2.61;100.00;99752.41;5010769;28;20069;-53
2024/01/10 08:42:38;;;;;;;55.35;27.77;;;;;;;-2.36;100.00;99746.38;5014556;28;20127;-53
2024/01/10 08:45:04;;;;;;;22.83;12.93;;;;;;;-2.27;100.00;99742.31;5012553;28;20597;-53
2024/01/10 08:47:32;;;;;;;27.20;9.95;;;;;;;-2.17;100.00;99750.50;5011627;28;20018;-53
2024/01/10 08:49:58;;;;;;;19.02;7.68;;;;;;;-2.03;100.00;99751.31;5008174;28;20029;-60
2024/01/10 08:52:24;;;;;;;24.70;9.13;;;;;;;-1.81;100.00;99744.59;5019717;28;20034;-59
2024/01/10 08:54:49;;;;;;;23.10;9.13;;;;;;;-1.53;100.00;99742.75;5009161;28;20034;-57
2024/01/10 08:57:15;;;;;;;25.73;10.10;;;;;;;-0.96;100.00;99751.19;5013005;28;20030;-61
2024/01/10 08:59:43;;;;;;;24.05;9.10;;;;;;;0.11;100.00;99742.63;5012351;28;20480;-62
2024/01/10 09:02:09;;;;;;;19.65;8.70;;;;;;;1.27;96.47;99737.34;5000879;28;20034;-62
2024/01/10 09:04:34;;;;;;;24.52;9.52;;;;;;;1.22;90.40;99739.50;5009384;28;20045;-61
2024/01/10 09:07:00;;;;;;;25.50;9.82;;;;;;;2.31;86.16;99744.91;5015524;28;20045;-62
2024/01/10 09:09:25;;;;;;;22.23;9.45;;;;;;;2.89;81.04;99747.16;4991011;28;20037;-62
2024/01/10 09:11:51;;;;;;;20.10;9.02;;;;;;;4.36;75.02;99744.00;5015331;28;20099;-62
2024/01/10 09:14:16;;;;;;;20.42;8.85;;;;;;;4.87;71.53;99742.81;4996983;28;20030;-62
2024/01/10 09:16:42;;;;;;;30.17;11.93;;;;;;;5.09;68.53;99738.13;5014494;28;20021;-62
2024/01/10 09:19:07;;;;;;;24.65;10.15;;;;;;;5.59;66.70;99743.19;5015051;28;20030;-62
2024/01/10 09:21:34;;;;;;;26.15;10.60;;;;;;;5.15;66.21;99742.91;5005897;28;20044;-62
2024/01/10 09:24:00;;;;;;;22.20;9.82;;;;;;;6.18;64.55;99739.16;5012086;28;20049;-62
2024/01/10 09:26:25;;;;;;;26.88;10.70;;;;;;;7.22;61.18;99725.91;5020854;28;20092;-62
2024/01/10 09:28:51;;;;;;;21.00;10.45;;;;;;;7.45;58.94;99733.44;5006747;28;20057;-64
2024/01/10 09:31:16;;;;;;;22.50;10.13;;;;;;;8.44;56.58;99737.34;5012130;28;20450;-63
2024/01/10 09:33:43;;;;;;;23.40;11.27;;;;;;;8.61;55.64;99744.41;5016414;28;20350;-63
2024/01/10 09:36:08;;;;;;;24.52;11.18;;;;;;;8.42;54.00;99742.88;5008581;28;20674;-63
2024/01/10 09:38:40;;;;;;;25.02;11.52;;;;;;;8.26;54.00;99743.69;5008205;28;20140;-61
2024/01/10 09:41:05;;;;;;;22.63;11.18;;;;;;;8.58;53.66;99742.06;4997745;28;20033;-61
2024/01/10 09:43:33;;;;;;;26.90;11.45;;;;;;;8.64;52.88;99743.25;5010113;28;20097;-61
2024/01/10 09:46:00;;;;;;;26.35;12.48;;;;;;;8.13;52.25;99735.22;5009634;28;20021;-60
2024/01/10 09:48:26;;;;;;;24.75;11.27;;;;;;;9.05;51.88;99737.84;4993558;28;20431;-60
2024/01/10 09:50:52;;;;;;;21.95;10.52;;;;;;;9.41;51.75;99735.59;5009007;28;20026;-60
2024/01/10 09:53:24;;;;;;;21.60;11.25;;;;;;;9.40;50.32;99736.59;5012506;28;20088;-60
2024/01/10 09:55:50;;;;;;;21.25;10.95;;;;;;;10.15;49.60;99722.59;5007174;28;20021;-60
2024/01/10 09:58:17;;;;;;;21.17;11.60;;;;;;;8.72;50.17;99732.44;5016353;28;20029;-60
2024/01/10 10:00:43;;;;;;;23.58;11.45;;;;;;;9.66;49.88;99741.75;5011707;28;20113;-61
2024/01/10 10:03:14;;;;;;;25.90;11.73;;;;;;;10.09;49.31;99729.56;5010355;28;20117;-61
2024/01/10 10:05:41;;;;;;;21.20;11.40;;;;;;;10.96;47.95;99742.00;5019273;28;20029;-61
2024/01/10 10:08:09;;;;;;;20.38;10.80;;;;;;;9.64;48.66;99741.94;5015785;28;20053;-61
2024/01/10 10:10:35;;;;;;;24.27;12.23;;;;;;;8.69;49.18;99732.78;5001157;28;20553;-61
2024/01/10 10:13:02;;;;;;;21.17;11.00;;;;;;;9.07;48.83;99741.22;5014113;28;20105;-61
2024/01/10 10:15:27;;;;;;;22.25;11.88;;;;;;;8.91;49.61;99732.13;4997742;28;20029;-61
2024/01/10 10:18:14;;;;;;;22.95;12.38;;;;;;;9.74;50.27;99732.75;5138152;22;20049;-59
2024/01/10 10:20:39;;;;;;;22.88;12.35;;;;;;;11.14;47.43;99731.66;5021474;28;20052;-55
2024/01/10 10:23:12;;;;;;;23.63;11.82;;;;;;;10.51;47.04;99731.03;5026984;28;20055;-55
2024/01/10 10:25:43;;;;;;;19.92;12.15;;;;;;;10.85;46.89;99723.50;5028507;28;20163;-55
2024/01/10 10:28:08;;;;;;;21.27;11.75;;;;;;;9.56;47.19;99723.06;5011294;28;20025;-55
2024/01/10 10:30:34;;;;;;;24.15;12.70;;;;;;;9.53;47.45;99727.94;5019647;28;20972;-55
2024/01/10 10:33:00;;;;;;;22.70;11.63;;;;;;;9.50;47.98;99722.88;5032816;28;20363;-55
2024/01/10 10:35:26;;;;;;;23.20;12.20;;;;;;;9.39;48.32;99724.94;5032888;28;20136;-55
2024/01/10 10:37:52;;;;;;;25.17;12.43;;;;;;;9.37;48.89;99726.13;5029420;28;20105;-55
2024/01/10 10:40:18;;;;;;;27.27;12.85;;;;;;;8.65;48.77;99728.75;5030451;28;20499;-55
2024/01/10 10:42:49;;;;;;;25.02;12.75;;;;;;;9.44;48.89;99729.84;5024966;28;20124;-55
2024/01/10 10:45:17;;;;;;;23.35;11.77;;;;;;;9.39;48.79;99724.94;5030321;28;20026;-55
2024/01/10 10:47:46;;;;;;;24.73;12.00;;;;;;;9.36;48.54;99719.91;5030970;28;20034;-55
2024/01/10 10:50:13;;;;;;;;;;;;;;;10.06;47.97;99715.53;5030059;28;20022;-55
2024/01/10 10:52:43;;;;;;;22.60;11.50;;;;;;;9.91;47.26;99715.47;5008713;28;19917;-55
2024/01/10 10:55:09;;;;;;;24.17;12.90;;;;;;;9.48;48.70;99722.22;5034333;28;20108;-55
2024/01/10 10:57:35;;;;;;;23.25;12.38;;;;;;;9.17;48.90;99718.44;5031069;28;20108;-55
2024/01/10 11:00:01;;;;;;;20.83;12.30;;;;;;;10.81;47.28;99716.75;5023742;28;20597;-55
2024/01/10 11:02:26;;;;;;;26.42;12.65;;;;;;;10.69;47.35;99709.06;5027544;28;20040;-54
2024/01/10 11:04:54;;;;;;;21.30;11.95;;;;;;;10.86;47.03;99715.16;5034833;28;20040;-54
2024/01/10 11:07:20;;;;;;;24.90;12.25;;;;;;;11.78;46.10;99720.28;5030684;28;20380;-55
2024/01/10 11:09:48;;;;;;;24.05;13.40;;;;;;;12.01;45.53;99720.19;5026690;28;20033;-54
2024/01/10 11:12:14;;;;;;;19.65;12.15;;;;;;;12.63;44.54;99709.81;5023401;28;20041;-55
2024/01/10 11:14:49;;;;;;;22.63;13.55;;;;;;;12.70;43.68;99716.09;5033775;28;20029;-55
2024/01/10 11:17:30;;;;;;;23.50;13.82;;;;;;;12.83;44.17;99713.50;5030466;28;20014;-54
2024/01/10 11:20:21;;;;;;;22.30;12.85;;;;;;;12.99;43.93;99711.56;5030004;28;20076;-55